sensor_id;sensor_type;location;lat;lon;timestamp;temperature;humidity
16178;DHT22;8195;51.220;9.746;2023-04-24T00:03:02;11.70;97.20
16178;DHT22;8195;51.220;9.746;2023-04-24T00:13:23;11.50;97.20
16178;DHT22;8195;51.220;9.746;2023-04-24T00:23:57;11.60;97.20
16178;DHT22;8195;51.220;9.746;2023-04-24T00:34:17;11.50;97.20
16178;DHT22;8195;51.220;9.746;2023-04-24T00:44:38;11.40;97.20
16178;DHT22;8195;51.220;9.746;2023-04-24T00:54:59;11.30;97.20
16178;DHT22;8195;51.220;9.746;2023-04-24T01:05:30;11.20;97.20
16178;DHT22;8195;51.220;9.746;2023-04-24T01:16:08;11.00;97.20
16178;DHT22;8195;51.220;9.746;2023-04-24T01:26:38;10.80;97.20
16178;DHT22;8195;51.220;9.746;2023-04-24T01:37:05;10.70;97.20
16178;DHT22;8195;51.220;9.746;2023-04-24T01:47:26;10.80;97.20
16178;DHT22;8195;51.220;9.746;2023-04-24T02:19:03;10.50;97.20
16178;DHT22;8195;51.220;9.746;2023-04-24T02:29:47;10.50;97.20
16178;DHT22;8195;51.220;9.746;2023-04-24T02:40:34;10.60;97.20
16178;DHT22;8195;51.220;9.746;2023-04-24T02:51:17;10.60;97.20
16178;DHT22;8195;51.220;9.746;2023-04-24T03:01:38;10.60;97.20
16178;DHT22;8195;51.220;9.746;2023-04-24T03:11:58;10.50;97.20
16178;DHT22;8195;51.220;9.746;2023-04-24T03:22:22;10.50;97.20
16178;DHT22;8195;51.220;9.746;2023-04-24T03:32:43;10.50;97.20
16178;DHT22;8195;51.220;9.746;2023-04-24T03:43:04;10.40;97.20
16178;DHT22;8195;51.220;9.746;2023-04-24T03:53:25;10.40;97.20
16178;DHT22;8195;51.220;9.746;2023-04-24T04:03:54;10.40;97.20
16178;DHT22;8195;51.220;9.746;2023-04-24T04:14:14;10.50;97.20
16178;DHT22;8195;51.220;9.746;2023-04-24T04:36:06;10.50;97.20
16178;DHT22;8195;51.220;9.746;2023-04-24T04:46:29;10.40;97.20
16178;DHT22;8195;51.220;9.746;2023-04-24T04:57:02;10.40;97.20
16178;DHT22;8195;51.220;9.746;2023-04-24T05:07:23;10.40;97.20
16178;DHT22;8195;51.220;9.746;2023-04-24T05:17:47;10.40;97.20
16178;DHT22;8195;51.220;9.746;2023-04-24T05:28:08;10.40;97.20
16178;DHT22;8195;51.220;9.746;2023-04-24T05:38:29;10.40;97.20
16178;DHT22;8195;51.220;9.746;2023-04-24T05:48:50;10.40;97.20
16178;DHT22;8195;51.220;9.746;2023-04-24T06:10:03;10.70;97.20
16178;DHT22;8195;51.220;9.746;2023-04-24T06:20:24;10.60;97.20
16178;DHT22;8195;51.220;9.746;2023-04-24T06:30:45;11.00;97.20
16178;DHT22;8195;51.220;9.746;2023-04-24T06:41:06;11.20;97.20
16178;DHT22;8195;51.220;9.746;2023-04-24T06:51:33;11.60;97.20
16178;DHT22;8195;51.220;9.746;2023-04-24T07:01:55;11.80;97.20
16178;DHT22;8195;51.220;9.746;2023-04-24T07:12:29;12.40;97.20
16178;DHT22;8195;51.220;9.746;2023-04-24T07:23:01;13.20;97.20
16178;DHT22;8195;51.220;9.746;2023-04-24T07:33:22;13.20;97.20
16178;DHT22;8195;51.220;9.746;2023-04-24T07:43:44;12.80;97.20
16178;DHT22;8195;51.220;9.746;2023-04-24T07:54:05;13.80;97.20
16178;DHT22;8195;51.220;9.746;2023-04-24T08:04:26;13.50;97.20
16178;DHT22;8195;51.220;9.746;2023-04-24T08:14:47;12.80;97.20
16178;DHT22;8195;51.220;9.746;2023-04-24T08:25:09;12.50;97.20
16178;DHT22;8195;51.220;9.746;2023-04-24T08:35:39;13.20;97.20
16178;DHT22;8195;51.220;9.746;2023-04-24T08:46:06;12.20;97.20
16178;DHT22;8195;51.220;9.746;2023-04-24T08:56:28;13.10;97.20
16178;DHT22;8195;51.220;9.746;2023-04-24T09:06:58;12.70;97.20
16178;DHT22;8195;51.220;9.746;2023-04-24T09:17:40;12.30;97.20
16178;DHT22;8195;51.220;9.746;2023-04-24T09:28:05;12.30;97.20
16178;DHT22;8195;51.220;9.746;2023-04-24T09:38:41;12.10;97.20
16178;DHT22;8195;51.220;9.746;2023-04-24T09:49:10;11.80;97.20
16178;DHT22;8195;51.220;9.746;2023-04-24T09:59:31;11.70;97.20
16178;DHT22;8195;51.220;9.746;2023-04-24T10:09:52;11.90;97.20
16178;DHT22;8195;51.220;9.746;2023-04-24T10:20:55;11.40;97.20
16178;DHT22;8195;51.220;9.746;2023-04-24T10:31:17;11.10;97.20
16178;DHT22;8195;51.220;9.746;2023-04-24T10:52:47;12.80;97.20
16178;DHT22;8195;51.220;9.746;2023-04-24T11:03:24;13.50;97.20
16178;DHT22;8195;51.220;9.746;2023-04-24T11:14:07;12.90;97.20
16178;DHT22;8195;51.220;9.746;2023-04-24T11:24:30;12.10;97.20
16178;DHT22;8195;51.220;9.746;2023-04-24T11:34:53;12.20;97.20
16178;DHT22;8195;51.220;9.746;2023-04-24T11:45:16;11.60;97.20
16178;DHT22;8195;51.220;9.746;2023-04-24T12:06:27;11.90;97.20
16178;DHT22;8195;51.220;9.746;2023-04-24T12:16:49;11.60;97.20
16178;DHT22;8195;51.220;9.746;2023-04-24T12:38:22;11.40;97.20
16178;DHT22;8195;51.220;9.746;2023-04-24T12:48:43;11.40;97.20
16178;DHT22;8195;51.220;9.746;2023-04-24T12:59:04;11.20;97.20
16178;DHT22;8195;51.220;9.746;2023-04-24T13:09:25;11.20;97.20
16178;DHT22;8195;51.220;9.746;2023-04-24T13:19:46;11.60;97.20
16178;DHT22;8195;51.220;9.746;2023-04-24T13:30:07;11.30;97.20
16178;DHT22;8195;51.220;9.746;2023-04-24T13:40:28;11.20;97.20
16178;DHT22;8195;51.220;9.746;2023-04-24T13:50:55;11.10;97.20
16178;DHT22;8195;51.220;9.746;2023-04-24T14:01:22;11.00;97.20
16178;DHT22;8195;51.220;9.746;2023-04-24T14:11:44;11.20;97.20
16178;DHT22;8195;51.220;9.746;2023-04-24T14:32:52;11.30;97.20
16178;DHT22;8195;51.220;9.746;2023-04-24T14:43:16;11.00;97.20
16178;DHT22;8195;51.220;9.746;2023-04-24T15:04:18;10.60;97.20
16178;DHT22;8195;51.220;9.746;2023-04-24T15:14:39;11.00;97.20
16178;DHT22;8195;51.220;9.746;2023-04-24T15:25:00;11.00;97.20
16178;DHT22;8195;51.220;9.746;2023-04-24T15:35:25;10.80;97.20
16178;DHT22;8195;51.220;9.746;2023-04-24T15:55:57;11.00;97.20
16178;DHT22;8195;51.220;9.746;2023-04-24T16:06:18;10.90;97.20
16178;DHT22;8195;51.220;9.746;2023-04-24T16:16:39;10.80;97.20
16178;DHT22;8195;51.220;9.746;2023-04-24T16:27:00;10.50;97.20
16178;DHT22;8195;51.220;9.746;2023-04-24T16:37:21;10.30;97.20
16178;DHT22;8195;51.220;9.746;2023-04-24T16:47:42;10.30;97.20
16178;DHT22;8195;51.220;9.746;2023-04-24T16:58:03;10.30;97.20
16178;DHT22;8195;51.220;9.746;2023-04-24T17:08:23;10.10;97.20
16178;DHT22;8195;51.220;9.746;2023-04-24T17:18:44;10.00;97.20
16178;DHT22;8195;51.220;9.746;2023-04-24T17:29:05;9.90;97.20
16178;DHT22;8195;51.220;9.746;2023-04-24T17:39:27;9.80;97.20
16178;DHT22;8195;51.220;9.746;2023-04-24T17:49:47;9.70;97.20
16178;DHT22;8195;51.220;9.746;2023-04-24T18:00:09;9.60;97.20
16178;DHT22;8195;51.220;9.746;2023-04-24T18:10:32;9.50;97.20
16178;DHT22;8195;51.220;9.746;2023-04-24T18:20:57;9.30;97.20
16178;DHT22;8195;51.220;9.746;2023-04-24T18:42:08;9.10;97.20
16178;DHT22;8195;51.220;9.746;2023-04-24T18:52:39;9.10;97.20
16178;DHT22;8195;51.220;9.746;2023-04-24T19:03:00;9.10;97.20
16178;DHT22;8195;51.220;9.746;2023-04-24T19:13:21;8.90;97.20
16178;DHT22;8195;51.220;9.746;2023-04-24T19:23:42;8.70;97.20
16178;DHT22;8195;51.220;9.746;2023-04-24T19:34:02;8.60;97.20
16178;DHT22;8195;51.220;9.746;2023-04-24T19:44:23;8.40;97.20
16178;DHT22;8195;51.220;9.746;2023-04-24T19:54:44;8.20;97.20
16178;DHT22;8195;51.220;9.746;2023-04-24T20:05:06;8.00;97.20
16178;DHT22;8195;51.220;9.746;2023-04-24T20:15:27;7.80;97.20
16178;DHT22;8195;51.220;9.746;2023-04-24T20:25:48;7.60;97.20
16178;DHT22;8195;51.220;9.746;2023-04-24T20:36:09;7.50;97.20
16178;DHT22;8195;51.220;9.746;2023-04-24T20:46:30;7.40;97.20
16178;DHT22;8195;51.220;9.746;2023-04-24T20:56:51;7.20;97.20
16178;DHT22;8195;51.220;9.746;2023-04-24T21:07:12;7.20;97.20
16178;DHT22;8195;51.220;9.746;2023-04-24T21:17:32;7.10;97.20
16178;DHT22;8195;51.220;9.746;2023-04-24T21:27:53;7.20;97.20
16178;DHT22;8195;51.220;9.746;2023-04-24T21:38:15;7.20;97.20
16178;DHT22;8195;51.220;9.746;2023-04-24T21:48:35;7.20;97.20
16178;DHT22;8195;51.220;9.746;2023-04-24T21:58:56;7.20;97.20
16178;DHT22;8195;51.220;9.746;2023-04-24T22:09:18;7.20;97.20
16178;DHT22;8195;51.220;9.746;2023-04-24T22:19:39;7.10;97.20
16178;DHT22;8195;51.220;9.746;2023-04-24T22:30:00;6.90;97.20
16178;DHT22;8195;51.220;9.746;2023-04-24T22:40:22;6.70;97.20
16178;DHT22;8195;51.220;9.746;2023-04-24T22:50:42;6.50;97.20
16178;DHT22;8195;51.220;9.746;2023-04-24T23:01:03;6.30;97.20
16178;DHT22;8195;51.220;9.746;2023-04-24T23:11:24;6.10;97.20
16178;DHT22;8195;51.220;9.746;2023-04-24T23:21:45;6.00;97.20
16178;DHT22;8195;51.220;9.746;2023-04-24T23:32:06;5.90;97.20
16178;DHT22;8195;51.220;9.746;2023-04-24T23:42:27;5.90;97.20
16178;DHT22;8195;51.220;9.746;2023-04-24T23:52:48;6.00;97.20
